createdAt,value
2016-12-05T00:00:49.821Z,736.55
2016-12-05T00:01:49.803Z,736.52
2016-12-05T00:02:49.792Z,736.55
2016-12-05T00:03:49.767Z,736.54
2016-12-05T00:04:49.749Z,736.54
2016-12-05T00:05:49.731Z,736.56
2016-12-05T00:06:49.719Z,736.53
2016-12-05T00:07:49.694Z,736.5
2016-12-05T00:08:49.676Z,736.49
2016-12-05T00:09:49.666Z,736.5
2016-12-05T00:10:49.647Z,736.56
2016-12-05T00:11:49.628Z,736.54
2016-12-05T00:12:49.603Z,736.51
2016-12-05T00:13:49.584Z,736.51
2016-12-05T00:14:49.573Z,736.5
2016-12-05T00:15:49.548Z,736.55
2016-12-05T00:16:49.537Z,736.55
2016-12-05T00:17:49.511Z,736.51
2016-12-05T00:18:49.493Z,736.51
2016-12-05T00:19:49.483Z,736.55
2016-12-05T00:20:49.465Z,736.53
2016-12-05T00:21:49.438Z,736.53
2016-12-05T00:22:49.427Z,736.54
2016-12-05T00:23:49.402Z,736.51
2016-12-05T00:24:49.385Z,736.52
2016-12-05T00:25:49.372Z,736.53
2016-12-05T00:26:49.354Z,736.55
2016-12-05T00:27:49.337Z,736.55
2016-12-05T00:28:49.311Z,736.49
2016-12-05T00:29:49.293Z,736.51
2016-12-05T00:30:49.276Z,736.58
2016-12-05T00:31:49.264Z,736.55
2016-12-05T00:32:49.246Z,736.56
2016-12-05T00:33:49.230Z,736.55
2016-12-05T00:34:49.203Z,736.54
2016-12-05T00:35:49.184Z,736.53
2016-12-05T00:36:49.174Z,736.51
2016-12-05T00:37:49.155Z,736.55
2016-12-05T00:38:49.131Z,736.54
2016-12-05T00:39:49.113Z,736.49
2016-12-05T00:40:49.094Z,736.54
2016-12-05T00:41:49.085Z,736.49
2016-12-05T00:42:49.067Z,736.52
2016-12-05T00:43:49.040Z,736.5
2016-12-05T00:44:49.029Z,736.54
2016-12-05T00:45:49.010Z,736.54
2016-12-05T00:46:48.991Z,736.56
2016-12-05T00:47:48.974Z,736.54
2016-12-05T00:48:48.957Z,736.55
2016-12-05T00:49:48.931Z,736.55
2016-12-05T00:50:48.919Z,736.56
2016-12-05T00:51:48.896Z,736.53
2016-12-05T00:52:48.877Z,736.53
2016-12-05T00:53:48.859Z,736.54
2016-12-05T00:54:48.840Z,736.55
2016-12-05T00:55:48.822Z,736.52
2016-12-05T00:56:48.805Z,736.55
2016-12-05T00:57:48.786Z,736.56
2016-12-05T00:58:48.768Z,736.54
2016-12-05T00:59:48.758Z,736.56
2016-12-05T01:00:48.732Z,736.58
2016-12-05T01:01:48.720Z,736.57
2016-12-05T01:02:48.703Z,736.61
2016-12-05T01:03:48.678Z,736.58
2016-12-05T01:04:48.661Z,736.59
2016-12-05T01:05:48.648Z,736.6
2016-12-05T01:06:48.632Z,736.59
2016-12-05T01:07:48.606Z,736.6
2016-12-05T01:08:48.595Z,736.59
2016-12-05T01:09:48.577Z,736.56
2016-12-05T01:10:48.552Z,736.6
2016-12-05T01:11:48.542Z,736.59
2016-12-05T01:12:48.516Z,736.59
2016-12-05T01:13:48.498Z,736.59
2016-12-05T01:14:48.488Z,736.58
2016-12-05T01:15:48.462Z,736.56
2016-12-05T01:16:48.443Z,736.57
2016-12-05T01:17:48.426Z,736.62
2016-12-05T01:18:48.415Z,736.6
2016-12-05T01:19:48.396Z,736.58
2016-12-05T01:20:48.371Z,736.58
2016-12-05T01:21:48.353Z,736.6
2016-12-05T01:22:48.343Z,736.6
2016-12-05T01:23:48.324Z,736.61
2016-12-05T01:24:48.306Z,736.6
2016-12-05T01:25:48.288Z,736.63
2016-12-05T01:26:48.270Z,736.64
2016-12-05T01:27:48.245Z,736.63
2016-12-05T01:28:48.235Z,736.59
2016-12-05T01:29:48.209Z,736.63
2016-12-05T01:30:48.191Z,736.6
2016-12-05T01:31:48.181Z,736.59
2016-12-05T01:32:48.162Z,736.56
2016-12-05T01:33:48.137Z,736.61
2016-12-05T01:34:48.119Z,736.58
2016-12-05T01:35:48.101Z,736.62
2016-12-05T01:36:48.083Z,736.6
2016-12-05T01:37:48.064Z,736.65
2016-12-05T01:38:48.046Z,736.61
2016-12-05T01:39:48.035Z,736.62
2016-12-05T01:40:48.010Z,736.57
2016-12-05T01:41:48.001Z,736.61
2016-12-05T01:42:47.974Z,736.61
2016-12-05T01:43:47.963Z,736.62
2016-12-05T01:44:47.939Z,736.62
2016-12-05T01:45:47.920Z,736.62
2016-12-05T01:46:47.909Z,736.6
2016-12-05T01:47:47.891Z,736.63
2016-12-05T01:48:47.874Z,736.6
2016-12-05T01:49:47.855Z,736.64
2016-12-05T01:50:47.831Z,736.58
2016-12-05T01:51:47.815Z,736.57
2016-12-05T01:52:47.795Z,736.59
2016-12-05T01:53:47.783Z,736.58
2016-12-05T01:54:47.759Z,736.59
2016-12-05T01:55:47.749Z,736.58
2016-12-05T01:56:47.722Z,736.62
2016-12-05T01:57:47.711Z,736.61
2016-12-05T01:58:47.686Z,736.64
2016-12-05T01:59:47.674Z,736.65
2016-12-05T02:00:47.655Z,736.64
2016-12-05T02:01:47.632Z,736.6
2016-12-05T02:02:47.613Z,736.57
2016-12-05T02:03:47.601Z,736.63
2016-12-05T02:04:47.582Z,736.64
2016-12-05T02:05:47.565Z,736.62
2016-12-05T02:06:47.547Z,736.63
2016-12-05T02:07:47.535Z,736.58
2016-12-05T02:08:47.503Z,736.57
2016-12-05T02:09:47.493Z,736.57
2016-12-05T02:10:47.466Z,736.59
2016-12-05T02:11:47.449Z,736.58
2016-12-05T02:12:47.437Z,736.54
2016-12-05T02:13:47.413Z,736.6
2016-12-05T02:14:47.401Z,736.6
2016-12-05T02:15:47.383Z,736.61
2016-12-05T02:16:47.357Z,736.58
2016-12-05T02:17:47.339Z,736.59
2016-12-05T02:18:47.320Z,736.59
2016-12-05T02:19:47.301Z,736.56
2016-12-05T02:20:47.290Z,736.58
2016-12-05T02:21:47.263Z,736.57
2016-12-05T02:22:47.251Z,736.56
2016-12-05T02:23:47.226Z,736.59
2016-12-05T02:24:47.213Z,736.56
2016-12-05T02:25:47.188Z,736.52
2016-12-05T02:26:47.168Z,736.58
2016-12-05T02:27:47.149Z,736.61
2016-12-05T02:28:47.136Z,736.6
2016-12-05T02:29:47.117Z,736.63
2016-12-05T02:30:47.097Z,736.58
2016-12-05T02:31:47.072Z,736.56
2016-12-05T02:32:47.052Z,736.53
2016-12-05T02:33:47.033Z,736.57
2016-12-05T02:34:47.022Z,736.57
2016-12-05T02:35:46.994Z,736.56
2016-12-05T02:36:46.980Z,736.56
2016-12-05T02:37:46.955Z,736.58
2016-12-05T02:38:46.942Z,736.61
2016-12-05T02:39:46.916Z,736.57
2016-12-05T02:40:46.902Z,736.57
2016-12-05T02:41:46.876Z,736.57
2016-12-05T02:42:46.864Z,736.61
2016-12-05T02:43:46.844Z,736.63
2016-12-05T02:44:46.826Z,736.57
2016-12-05T02:45:46.799Z,736.57
2016-12-05T02:46:46.780Z,736.6
2016-12-05T02:47:46.759Z,736.59
2016-12-05T02:48:46.740Z,736.62
2016-12-05T02:49:46.721Z,736.61
2016-12-05T02:50:46.702Z,736.6
2016-12-05T02:51:46.689Z,736.62
2016-12-05T02:52:46.664Z,736.59
2016-12-05T02:53:46.651Z,736.61
2016-12-05T02:54:46.632Z,736.58
2016-12-05T02:55:46.606Z,736.59
2016-12-05T02:56:46.587Z,736.57
2016-12-05T02:57:46.569Z,736.59
2016-12-05T02:58:46.556Z,736.59
2016-12-05T02:59:46.537Z,736.6
2016-12-05T03:00:46.520Z,736.59
2016-12-05T03:01:46.501Z,736.58
2016-12-05T03:02:46.476Z,736.55
2016-12-05T03:03:46.457Z,736.57
2016-12-05T03:04:46.439Z,736.55
2016-12-05T03:05:46.427Z,736.57
2016-12-05T03:06:46.401Z,736.59
2016-12-05T03:07:46.382Z,736.58
2016-12-05T03:08:46.364Z,736.59
2016-12-05T03:09:46.345Z,736.62
2016-12-05T03:10:46.326Z,736.59
2016-12-05T03:11:46.308Z,736.58
2016-12-05T03:12:46.288Z,736.62
2016-12-05T03:13:46.276Z,736.62
2016-12-05T03:14:46.251Z,736.6
2016-12-05T03:15:46.233Z,736.6
2016-12-05T03:16:46.214Z,736.65
2016-12-05T03:17:46.201Z,736.63
2016-12-05T03:18:46.182Z,736.64
2016-12-05T03:19:46.164Z,736.62
2016-12-05T03:20:46.139Z,736.63
2016-12-05T03:21:46.120Z,736.69
2016-12-05T03:22:46.109Z,736.64
2016-12-05T03:23:46.088Z,736.62
2016-12-05T03:24:46.064Z,736.63
2016-12-05T03:25:46.045Z,736.63
2016-12-05T03:26:46.033Z,736.59
2016-12-05T03:27:46.007Z,736.61
2016-12-05T03:28:45.996Z,736.58
2016-12-05T03:29:45.971Z,736.62
2016-12-05T03:30:45.960Z,736.57
2016-12-05T03:31:45.940Z,736.59
2016-12-05T03:32:45.921Z,736.62
2016-12-05T03:33:45.903Z,736.58
2016-12-05T03:34:45.876Z,736.62
2016-12-05T03:35:45.858Z,736.63
2016-12-05T03:36:45.840Z,736.62
2016-12-05T03:37:45.827Z,736.61
2016-12-05T03:38:45.801Z,736.63
2016-12-05T03:39:45.783Z,736.62
2016-12-05T03:40:45.771Z,736.62
2016-12-05T03:41:45.746Z,736.62
2016-12-05T03:42:45.734Z,736.61
2016-12-05T03:43:45.708Z,736.6
2016-12-05T03:44:45.689Z,736.61
2016-12-05T03:45:45.680Z,736.61
2016-12-05T03:46:45.652Z,736.59
2016-12-05T03:47:45.634Z,736.62
2016-12-05T03:48:45.622Z,736.57
2016-12-05T03:49:45.603Z,736.56
2016-12-05T03:50:45.585Z,736.58
2016-12-05T03:51:45.560Z,736.61
2016-12-05T03:52:45.549Z,736.56
2016-12-05T03:53:45.522Z,736.61
2016-12-05T03:54:45.503Z,736.56
2016-12-05T03:55:45.492Z,736.59
2016-12-05T03:56:45.472Z,736.55
2016-12-05T03:57:45.454Z,736.58
2016-12-05T03:58:45.428Z,736.63
2016-12-05T03:59:45.422Z,736.6
2016-12-05T04:00:45.391Z,736.61
2016-12-05T04:01:45.372Z,736.64
2016-12-05T04:02:45.361Z,736.61
2016-12-05T04:03:45.343Z,736.62
2016-12-05T04:04:45.323Z,736.61
2016-12-05T04:05:45.305Z,736.6
2016-12-05T04:06:45.286Z,736.61
2016-12-05T04:07:45.259Z,736.61
2016-12-05T04:08:45.241Z,736.58
2016-12-05T04:09:45.230Z,736.6
2016-12-05T04:10:45.204Z,736.56
2016-12-05T04:11:45.190Z,736.57
2016-12-05T04:12:45.173Z,736.61
2016-12-05T04:13:45.147Z,736.56
2016-12-05T04:14:45.128Z,736.56
2016-12-05T04:15:45.108Z,736.59
2016-12-05T04:16:45.090Z,736.55
2016-12-05T04:17:45.078Z,736.57
2016-12-05T04:18:45.051Z,736.57
2016-12-05T04:19:45.039Z,736.52
2016-12-05T04:20:45.014Z,736.6
2016-12-05T04:21:44.995Z,736.6
2016-12-05T04:22:44.975Z,736.57
2016-12-05T04:23:44.963Z,736.58
2016-12-05T04:24:44.955Z,736.57
2016-12-05T04:25:44.920Z,736.6
2016-12-05T04:26:44.900Z,736.61
2016-12-05T04:27:44.882Z,736.61
2016-12-05T04:28:44.869Z,736.63
2016-12-05T04:29:44.846Z,736.59
2016-12-05T04:30:44.831Z,736.6
2016-12-05T04:31:44.806Z,736.59
2016-12-05T04:32:44.788Z,736.62
2016-12-05T04:33:44.775Z,736.58
2016-12-05T04:34:44.750Z,736.59
2016-12-05T04:35:44.731Z,736.64
2016-12-05T04:36:44.713Z,736.64
2016-12-05T04:37:44.702Z,736.62
2016-12-05T04:38:44.682Z,736.6
2016-12-05T04:39:44.657Z,736.58
2016-12-05T04:40:44.638Z,736.58
2016-12-05T04:41:44.625Z,736.59
2016-12-05T04:42:44.606Z,736.65
2016-12-05T04:43:44.588Z,736.61
2016-12-05T04:44:44.562Z,736.63
2016-12-05T04:45:44.543Z,736.65
2016-12-05T04:46:44.528Z,736.61
2016-12-05T04:47:44.511Z,736.62
2016-12-05T04:48:44.486Z,736.67
2016-12-05T04:49:44.473Z,736.64
2016-12-05T04:50:44.449Z,736.64
2016-12-05T04:51:44.429Z,736.7
2016-12-05T04:52:44.418Z,736.63
2016-12-05T04:53:44.399Z,736.67
2016-12-05T04:54:44.373Z,736.68
2016-12-05T04:55:44.354Z,736.7
2016-12-05T04:56:44.343Z,736.66
2016-12-05T04:57:44.324Z,736.71
2016-12-05T04:58:44.303Z,736.7
2016-12-05T04:59:44.279Z,736.72
2016-12-05T05:00:44.267Z,736.68
2016-12-05T05:01:44.249Z,736.67
2016-12-05T05:02:44.221Z,736.69
2016-12-05T05:03:44.210Z,736.74
2016-12-05T05:04:44.191Z,736.69
2016-12-05T05:05:44.166Z,736.71
2016-12-05T05:06:44.152Z,736.72
2016-12-05T05:07:44.135Z,736.72
2016-12-05T05:08:44.109Z,736.77
2016-12-05T05:09:44.096Z,736.74
2016-12-05T05:10:44.070Z,736.74
2016-12-05T05:11:44.052Z,736.75
2016-12-05T05:12:44.033Z,736.82
2016-12-05T05:13:44.020Z,736.73
2016-12-05T05:14:43.994Z,736.78
2016-12-05T05:15:43.982Z,736.78
2016-12-05T05:16:43.957Z,736.79
2016-12-05T05:17:43.945Z,736.74
2016-12-05T05:18:43.926Z,736.74
2016-12-05T05:19:43.907Z,736.78
2016-12-05T05:20:43.888Z,736.77
2016-12-05T05:21:43.869Z,736.8
2016-12-05T05:22:43.851Z,736.77
2016-12-05T05:23:43.832Z,736.77
2016-12-05T05:24:43.812Z,736.78
2016-12-05T05:25:43.787Z,736.8
2016-12-05T05:26:43.769Z,736.79
2016-12-05T05:27:43.758Z,736.78
2016-12-05T05:28:43.737Z,736.81
2016-12-05T05:29:43.712Z,736.83
2016-12-05T05:30:43.701Z,736.82
2016-12-05T05:31:43.674Z,736.8
2016-12-05T05:32:43.655Z,736.82
2016-12-05T05:33:43.643Z,736.81
2016-12-05T05:34:43.623Z,736.84
2016-12-05T05:35:43.605Z,736.79
2016-12-05T05:36:43.585Z,736.81
2016-12-05T05:37:43.559Z,736.82
2016-12-05T05:38:43.540Z,736.83
2016-12-05T05:39:43.527Z,736.85
2016-12-05T05:40:43.507Z,736.81
2016-12-05T05:41:43.483Z,736.84
2016-12-05T05:42:43.470Z,736.81
2016-12-05T05:43:43.445Z,736.82
2016-12-05T05:44:43.432Z,736.86
2016-12-05T05:45:43.406Z,736.84
2016-12-05T05:46:43.392Z,736.81
2016-12-05T05:47:43.374Z,736.83
2016-12-05T05:48:43.348Z,736.79
2016-12-05T05:49:43.329Z,736.82
2016-12-05T05:50:43.316Z,736.81
2016-12-05T05:51:43.291Z,736.86
2016-12-05T05:52:43.272Z,736.83
2016-12-05T05:53:43.259Z,736.83
2016-12-05T05:54:43.233Z,736.85
2016-12-05T05:55:43.221Z,736.84
2016-12-05T05:56:43.203Z,736.78
2016-12-05T05:57:43.176Z,736.84
2016-12-05T05:58:43.159Z,736.84
2016-12-05T05:59:43.146Z,736.83
2016-12-05T06:00:43.120Z,736.78
2016-12-05T06:01:43.100Z,736.78
2016-12-05T06:02:43.081Z,736.79
2016-12-05T06:03:43.063Z,736.85
2016-12-05T06:04:43.050Z,736.81
2016-12-05T06:05:43.024Z,736.81
2016-12-05T06:06:43.011Z,736.82
2016-12-05T06:07:42.986Z,736.86
2016-12-05T06:08:42.974Z,736.83
2016-12-05T06:09:42.954Z,736.84
2016-12-05T06:10:42.936Z,736.84
2016-12-05T06:11:42.910Z,736.84
2016-12-05T06:12:42.899Z,736.82
2016-12-05T06:13:42.872Z,736.86
2016-12-05T06:14:42.860Z,736.87
2016-12-05T06:15:42.834Z,736.85
2016-12-05T06:16:42.822Z,736.88
2016-12-05T06:17:42.796Z,736.86
2016-12-05T06:18:42.783Z,736.87
2016-12-05T06:19:42.765Z,736.85
2016-12-05T06:20:42.745Z,736.85
2016-12-05T06:21:42.728Z,736.85
2016-12-05T06:22:42.707Z,736.86
2016-12-05T06:23:42.689Z,736.86
2016-12-05T06:24:42.663Z,736.88
2016-12-05T06:25:42.644Z,736.86
2016-12-05T06:26:42.624Z,736.9
2016-12-05T06:27:42.605Z,736.94
2016-12-05T06:28:42.586Z,736.9
2016-12-05T06:29:42.568Z,736.89
2016-12-05T06:30:42.547Z,736.9
2016-12-05T06:31:42.528Z,736.88
2016-12-05T06:32:42.515Z,736.93
2016-12-05T06:33:42.496Z,736.9
2016-12-05T06:34:42.477Z,736.9
2016-12-05T06:35:42.451Z,736.91
2016-12-05T06:36:42.440Z,736.92
2016-12-05T06:37:42.412Z,736.92
2016-12-05T06:38:42.400Z,736.93
2016-12-05T06:39:42.375Z,736.97
2016-12-05T06:40:42.357Z,736.96
2016-12-05T06:41:42.342Z,736.97
2016-12-05T06:42:42.324Z,736.97
2016-12-05T06:43:42.298Z,736.94
2016-12-05T06:44:42.278Z,736.96
2016-12-05T06:45:42.266Z,736.95
2016-12-05T06:46:42.256Z,737
2016-12-05T06:47:42.229Z,736.98
2016-12-05T06:48:42.202Z,737
2016-12-05T06:49:42.183Z,737.01
2016-12-05T06:50:42.171Z,737
2016-12-05T06:51:42.151Z,737.03
2016-12-05T06:52:42.131Z,737.03
2016-12-05T06:53:42.113Z,737.03
2016-12-05T06:54:42.094Z,737.03
2016-12-05T06:55:42.075Z,737.03
2016-12-05T06:56:42.055Z,737.09
2016-12-05T06:57:42.029Z,737.04
2016-12-05T06:58:42.018Z,737.06
2016-12-05T06:59:41.991Z,737.11
2016-12-05T07:00:41.979Z,737.08
2016-12-05T07:01:41.955Z,737.13
2016-12-05T07:02:41.937Z,737.06
2016-12-05T07:03:41.921Z,737.12
2016-12-05T07:04:41.897Z,737.06
2016-12-05T07:05:41.885Z,737.12
2016-12-05T07:06:41.860Z,737.1
2016-12-05T07:07:41.841Z,737.09
2016-12-05T07:08:41.823Z,737.09
2016-12-05T07:09:41.805Z,737.11
2016-12-05T07:10:41.786Z,737.11
2016-12-05T07:11:41.768Z,737.13
2016-12-05T07:12:41.757Z,737.13
2016-12-05T07:13:41.738Z,737.13
2016-12-05T07:14:41.719Z,737.11
2016-12-05T07:15:41.702Z,737.15
2016-12-05T07:16:41.683Z,737.16
2016-12-05T07:17:41.658Z,737.18
2016-12-05T07:18:41.641Z,737.16
2016-12-05T07:19:41.629Z,737.17
2016-12-05T07:20:41.605Z,737.21
2016-12-05T07:21:41.595Z,737.23
2016-12-05T07:22:41.577Z,737.18
2016-12-05T07:23:41.552Z,737.23
2016-12-05T07:24:41.542Z,737.22
2016-12-05T07:25:41.517Z,737.26
2016-12-05T07:26:41.507Z,737.19
2016-12-05T07:27:41.489Z,737.26
2016-12-05T07:28:41.472Z,737.26
2016-12-05T07:29:41.448Z,737.31
2016-12-05T07:30:41.438Z,737.3
2016-12-05T07:31:41.415Z,737.29
2016-12-05T07:32:41.397Z,737.34
2016-12-05T07:33:41.583Z,737.31
2016-12-05T07:34:41.364Z,737.32
2016-12-05T07:35:41.354Z,737.32
2016-12-05T07:36:41.337Z,737.33
2016-12-05T07:37:41.315Z,737.35
2016-12-05T07:38:41.298Z,737.33
2016-12-05T07:39:41.282Z,737.32
2016-12-05T07:40:41.266Z,737.33
2016-12-05T07:41:41.256Z,737.3
2016-12-05T07:42:41.241Z,737.39
2016-12-05T07:43:41.218Z,737.33
2016-12-05T07:44:41.203Z,737.38
2016-12-05T07:45:41.188Z,737.37
2016-12-05T07:46:41.174Z,737.4
2016-12-05T07:47:41.165Z,737.42
2016-12-05T07:48:41.144Z,737.42
2016-12-05T07:49:41.130Z,737.44
2016-12-05T07:50:41.121Z,737.43
2016-12-05T07:51:41.100Z,737.43
2016-12-05T07:52:41.093Z,737.42
2016-12-05T07:53:41.079Z,737.41
2016-12-05T07:54:41.057Z,737.45
2016-12-05T07:55:41.044Z,737.46
2016-12-05T07:56:41.036Z,737.45
2016-12-05T07:57:41.022Z,737.51
2016-12-05T07:58:41.009Z,737.52
2016-12-05T07:59:40.995Z,737.53
2016-12-05T08:00:40.981Z,737.52
2016-12-05T08:01:40.968Z,737.51
2016-12-05T08:02:40.947Z,737.5
2016-12-05T08:03:40.941Z,737.48
2016-12-05T08:04:40.920Z,737.48
2016-12-05T08:05:40.913Z,737.51
2016-12-05T08:06:40.898Z,737.46
2016-12-05T08:07:40.885Z,737.49
2016-12-05T08:08:40.864Z,737.49
2016-12-05T08:09:40.856Z,737.52
2016-12-05T08:10:40.843Z,737.54
2016-12-05T08:11:40.830Z,737.54
2016-12-05T08:12:40.815Z,737.61
2016-12-05T08:13:40.794Z,737.58
2016-12-05T08:14:40.786Z,737.58
2016-12-05T08:15:40.765Z,737.61
2016-12-05T08:16:40.758Z,737.61
2016-12-05T08:17:40.743Z,737.59
2016-12-05T08:18:40.730Z,737.58
2016-12-05T08:19:40.708Z,737.63
2016-12-05T08:20:40.700Z,737.57
2016-12-05T08:21:40.686Z,737.58
2016-12-05T08:22:40.672Z,737.57
2016-12-05T08:23:40.657Z,737.59
2016-12-05T08:24:40.636Z,737.6
2016-12-05T08:25:40.629Z,737.57
2016-12-05T08:26:40.614Z,737.62
2016-12-05T08:27:40.592Z,737.62
2016-12-05T08:28:40.578Z,737.65
2016-12-05T08:29:40.564Z,737.66
2016-12-05T08:30:40.557Z,737.69
2016-12-05T08:31:40.535Z,737.68
2016-12-05T08:32:40.529Z,737.64
2016-12-05T08:33:40.507Z,737.66
2016-12-05T08:34:40.500Z,737.72
2016-12-05T08:35:40.486Z,737.68
2016-12-05T08:36:40.465Z,737.65
2016-12-05T08:37:40.457Z,737.7
2016-12-05T08:38:40.443Z,737.69
2016-12-05T08:39:40.431Z,737.67
2016-12-05T08:40:40.409Z,737.66
2016-12-05T08:41:40.402Z,737.67
2016-12-05T08:42:40.388Z,737.67
2016-12-05T08:43:40.374Z,737.69
2016-12-05T08:44:40.354Z,737.71
2016-12-05T08:45:40.339Z,737.72
2016-12-05T08:46:40.326Z,737.76
2016-12-05T08:47:40.319Z,737.76
2016-12-05T08:48:40.305Z,737.76
2016-12-05T08:49:40.290Z,737.76
2016-12-05T08:50:40.277Z,737.79
2016-12-05T08:51:40.263Z,737.78
2016-12-05T08:52:40.242Z,737.79
2016-12-05T08:53:40.235Z,737.8
2016-12-05T08:54:40.222Z,737.84
2016-12-05T08:55:40.201Z,737.79
2016-12-05T08:56:40.186Z,737.81
2016-12-05T08:57:40.178Z,737.86
2016-12-05T08:58:40.159Z,737.84
2016-12-05T08:59:40.145Z,737.84
2016-12-05T09:00:40.130Z,737.82
2016-12-05T09:01:40.116Z,737.85
2016-12-05T09:02:40.109Z,737.85
2016-12-05T09:03:40.088Z,737.82
2016-12-05T09:04:40.081Z,737.83
2016-12-05T09:05:40.060Z,737.84
2016-12-05T09:06:40.046Z,737.88
2016-12-05T09:07:40.038Z,737.88
2016-12-05T09:08:40.024Z,737.85
2016-12-05T09:09:40.003Z,737.87
2016-12-05T09:10:39.996Z,737.91
2016-12-05T09:11:39.973Z,737.9
2016-12-05T09:12:39.965Z,737.87
2016-12-05T09:13:39.951Z,737.89
2016-12-05T09:14:39.929Z,737.88
2016-12-05T09:15:39.915Z,737.91
2016-12-05T09:16:39.900Z,737.95
2016-12-05T09:17:39.886Z,737.95
2016-12-05T09:18:39.877Z,737.93
2016-12-05T09:19:39.856Z,737.95
2016-12-05T09:20:39.841Z,737.94
2016-12-05T09:21:39.827Z,737.95
2016-12-05T09:22:39.812Z,737.97
2016-12-05T09:23:39.798Z,737.98
2016-12-05T09:24:39.784Z,737.97
2016-12-05T09:25:39.776Z,737.98
2016-12-05T09:26:39.754Z,737.99
2016-12-05T09:27:39.740Z,737.96
2016-12-05T09:28:39.734Z,737.94
2016-12-05T09:29:39.711Z,738.01
2016-12-05T09:30:39.707Z,737.95
2016-12-05T09:31:39.683Z,737.95
2016-12-05T09:32:39.669Z,737.98
2016-12-05T09:33:39.663Z,737.95
2016-12-05T09:34:39.641Z,737.97
2016-12-05T09:35:39.634Z,737.97
2016-12-05T09:36:39.613Z,737.97
2016-12-05T09:37:39.607Z,737.93
2016-12-05T09:38:39.593Z,737.93
2016-12-05T09:39:39.581Z,737.96
2016-12-05T09:40:39.559Z,737.98
2016-12-05T09:41:39.546Z,737.98
2016-12-05T09:42:39.532Z,737.98
2016-12-05T09:43:39.525Z,737.97
2016-12-05T09:44:39.511Z,737.97
2016-12-05T09:45:39.498Z,737.97
2016-12-05T09:46:39.479Z,737.99
2016-12-05T09:47:39.473Z,738.02
2016-12-05T09:48:39.458Z,737.96
2016-12-05T09:49:39.447Z,737.93
2016-12-05T09:50:39.427Z,737.92
2016-12-05T09:51:39.413Z,737.95
2016-12-05T09:52:39.406Z,737.93
2016-12-05T09:53:39.395Z,737.96
2016-12-05T09:54:39.374Z,737.95
2016-12-05T09:55:39.361Z,737.93
2016-12-05T09:56:39.348Z,737.95
2016-12-05T09:57:39.341Z,737.9
2016-12-05T09:58:39.322Z,737.92
2016-12-05T09:59:39.309Z,737.95
2016-12-05T10:00:39.300Z,737.94
2016-12-05T10:01:39.291Z,737.96
2016-12-05T10:02:39.270Z,737.97
2016-12-05T10:03:39.258Z,737.93
2016-12-05T10:04:39.245Z,737.93
2016-12-05T10:05:39.239Z,737.94
2016-12-05T10:06:39.221Z,737.91
2016-12-05T10:07:39.207Z,737.92
2016-12-05T10:08:39.195Z,737.89
2016-12-05T10:09:39.182Z,737.91
2016-12-05T10:10:39.169Z,737.95
2016-12-05T10:11:39.163Z,737.95
2016-12-05T10:12:39.146Z,737.95
2016-12-05T10:13:39.132Z,737.91
2016-12-05T10:14:39.119Z,737.89
2016-12-05T10:15:39.113Z,737.94
2016-12-05T10:16:39.101Z,737.89
2016-12-05T10:17:39.089Z,737.9
2016-12-05T10:18:39.070Z,737.91
2016-12-05T10:19:39.064Z,737.9
2016-12-05T10:20:39.054Z,737.91
2016-12-05T10:21:39.040Z,737.91
2016-12-05T10:22:39.027Z,737.92
2016-12-05T10:23:39.009Z,737.93
2016-12-05T10:24:39.003Z,737.89
2016-12-05T10:25:38.990Z,737.9
2016-12-05T10:26:38.979Z,737.9
2016-12-05T10:27:38.966Z,737.89
2016-12-05T10:28:38.954Z,737.92
2016-12-05T10:29:38.934Z,737.89
2016-12-05T10:30:38.922Z,737.88
2016-12-05T10:31:38.909Z,737.85
2016-12-05T10:32:38.897Z,737.83
2016-12-05T10:33:38.892Z,737.87
2016-12-05T10:34:38.872Z,737.84
2016-12-05T10:35:38.865Z,737.8
2016-12-05T10:36:38.846Z,737.83
2016-12-05T10:37:38.841Z,737.84
2016-12-05T10:38:38.820Z,737.84
2016-12-05T10:39:38.808Z,737.86
2016-12-05T10:40:38.795Z,737.9
2016-12-05T10:41:38.790Z,737.88
2016-12-05T10:42:38.769Z,737.91
2016-12-05T10:43:38.765Z,737.91
2016-12-05T10:44:38.745Z,737.88
2016-12-05T10:45:38.732Z,737.86
2016-12-05T10:46:38.719Z,737.81
2016-12-05T10:47:38.707Z,737.84
2016-12-05T10:48:38.700Z,737.83
2016-12-05T10:49:38.687Z,737.84
2016-12-05T10:50:38.682Z,737.87
2016-12-05T10:51:38.663Z,737.83
2016-12-05T10:52:38.651Z,737.82
2016-12-05T10:53:38.636Z,737.81
2016-12-05T10:54:38.626Z,737.81
2016-12-05T10:55:38.611Z,737.79
2016-12-05T10:56:38.592Z,737.77
2016-12-05T10:57:38.579Z,737.8
2016-12-05T10:58:38.573Z,737.8
2016-12-05T10:59:38.554Z,737.76
2016-12-05T11:00:38.547Z,737.79
2016-12-05T11:01:38.526Z,737.76
2016-12-05T11:02:38.513Z,737.81
2016-12-05T11:03:38.500Z,737.8
2016-12-05T11:04:38.484Z,737.82
2016-12-05T11:05:38.470Z,737.83
2016-12-05T11:06:38.456Z,737.83
2016-12-05T11:07:38.441Z,737.76
2016-12-05T11:08:38.427Z,737.82
2016-12-05T11:09:38.412Z,737.87
2016-12-05T11:10:38.405Z,737.8
2016-12-05T11:11:38.393Z,737.77
2016-12-05T11:12:38.377Z,737.8
2016-12-05T11:13:38.352Z,737.8
2016-12-05T11:14:38.339Z,737.8
2016-12-05T11:15:38.328Z,737.82
2016-12-05T11:16:38.306Z,737.77
2016-12-05T11:17:38.298Z,737.83
2016-12-05T11:18:38.274Z,737.83
2016-12-05T11:19:38.266Z,737.78
2016-12-05T11:20:38.244Z,737.79
2016-12-05T11:21:38.236Z,737.8
2016-12-05T11:22:38.218Z,737.79
2016-12-05T11:23:38.204Z,737.79
2016-12-05T11:24:38.189Z,737.75
2016-12-05T11:25:38.173Z,737.81
2016-12-05T11:26:38.157Z,737.78
2016-12-05T11:27:38.134Z,737.77
2016-12-05T11:28:38.119Z,737.8
2016-12-05T11:29:38.102Z,737.83
2016-12-05T11:30:38.092Z,737.76
2016-12-05T11:31:38.078Z,737.8
2016-12-05T11:32:38.054Z,737.82
2016-12-05T11:33:38.038Z,737.77
2016-12-05T11:34:38.022Z,737.8
2016-12-05T11:35:38.007Z,737.8
2016-12-05T11:36:37.990Z,737.83
2016-12-05T11:37:37.981Z,737.78
2016-12-05T11:38:37.964Z,737.81
2016-12-05T11:39:37.940Z,737.75
2016-12-05T11:40:37.923Z,737.81
2016-12-05T11:41:37.913Z,737.81
2016-12-05T11:42:37.891Z,737.73
2016-12-05T11:43:37.875Z,737.7
2016-12-05T11:44:37.865Z,737.72
2016-12-05T11:45:37.848Z,737.7
2016-12-05T11:46:37.825Z,737.73
2016-12-05T11:47:37.809Z,737.76
2016-12-05T11:48:37.792Z,737.72
2016-12-05T11:49:37.784Z,737.73
2016-12-05T11:50:37.760Z,737.73
2016-12-05T11:51:37.743Z,737.71
2016-12-05T11:52:37.727Z,737.7
2016-12-05T11:53:37.718Z,737.72
2016-12-05T11:54:37.695Z,737.68
2016-12-05T11:55:37.684Z,737.69
2016-12-05T11:56:37.664Z,737.69
2016-12-05T11:57:37.646Z,737.67
2016-12-05T11:58:37.628Z,737.73
2016-12-05T11:59:37.610Z,737.73
2016-12-05T12:00:37.600Z,737.72
2016-12-05T12:01:37.577Z,737.69
2016-12-05T12:02:37.565Z,737.67
2016-12-05T12:03:37.549Z,737.73
2016-12-05T12:04:37.531Z,737.7
2016-12-05T12:05:37.516Z,737.72
2016-12-05T12:06:37.497Z,737.7
2016-12-05T12:07:37.488Z,737.71
2016-12-05T12:08:37.492Z,737.71
2016-12-05T12:09:37.440Z,737.73
2016-12-05T12:10:37.422Z,737.68
2016-12-05T12:11:37.405Z,737.7
2016-12-05T12:12:37.390Z,737.66
2016-12-05T12:13:37.371Z,737.69
2016-12-05T12:14:37.361Z,737.72
2016-12-05T12:15:37.337Z,737.7
2016-12-05T12:16:37.327Z,737.66
2016-12-05T12:17:37.308Z,737.68
2016-12-05T12:18:37.285Z,737.71
2016-12-05T12:19:37.274Z,737.68
2016-12-05T12:20:37.251Z,737.71
2016-12-05T12:21:37.233Z,737.73
2016-12-05T12:22:37.222Z,737.66
2016-12-05T12:23:37.198Z,737.74
2016-12-05T12:24:37.180Z,737.7
2016-12-05T12:25:37.163Z,737.7
2016-12-05T12:26:37.146Z,737.66
2016-12-05T12:27:37.135Z,737.65
2016-12-05T12:28:37.110Z,737.62
2016-12-05T12:29:37.093Z,737.67
2016-12-05T12:30:37.082Z,737.67
2016-12-05T12:31:37.065Z,737.67